createdAt,value
2023-03-02T00:01:03.097Z,97142.03
2023-03-02T00:03:31.034Z,97149.72
2023-03-02T00:05:59.423Z,97142.81
2023-03-02T00:08:27.740Z,97142.75
2023-03-02T00:10:56.608Z,97149.78
2023-03-02T00:13:23.563Z,97144.72
2023-03-02T00:15:50.187Z,97144.78
2023-03-02T00:18:16.635Z,97151.50
2023-03-02T00:20:43.204Z,97140.38
2023-03-02T00:23:09.748Z,97145.66
2023-03-02T00:25:36.409Z,97147.44
2023-03-02T00:28:03.588Z,97148.31
2023-03-02T00:30:30.198Z,97147.56
2023-03-02T00:32:58.471Z,97145.66
2023-03-02T00:35:27.103Z,97151.66
2023-03-02T00:37:53.679Z,97146.34
2023-03-02T00:40:20.543Z,97152.44
2023-03-02T00:42:47.166Z,97150.72
2023-03-02T00:45:13.699Z,97146.31
2023-03-02T00:47:41.575Z,97159.09
2023-03-02T00:50:09.515Z,97147.94
2023-03-02T00:52:36.095Z,97143.50
2023-03-02T00:55:02.695Z,97134.06
2023-03-02T00:57:29.222Z,97146.34
2023-03-02T00:59:55.751Z,97135.13
2023-03-02T01:02:22.274Z,97137.66
2023-03-02T01:04:49.439Z,97132.41
2023-03-02T01:07:18.343Z,97132.34
2023-03-02T01:09:45.901Z,97122.94
2023-03-02T01:12:12.495Z,97127.41
2023-03-02T01:14:42.575Z,97113.41
2023-03-02T01:17:10.242Z,97109.91
2023-03-02T01:19:37.235Z,97109.09
2023-03-02T01:22:03.806Z,97099.66
2023-03-02T01:24:30.561Z,97090.97
2023-03-02T01:26:57.082Z,97084.91
2023-03-02T01:29:23.782Z,97091.88
2023-03-02T01:31:50.358Z,97090.66
2023-03-02T01:34:16.979Z,97083.81
2023-03-02T01:36:46.058Z,97083.06
2023-03-02T01:39:16.415Z,97077.88
2023-03-02T01:41:44.221Z,97074.44
2023-03-02T01:44:37.086Z,97070.09
2023-03-02T01:47:17.282Z,97073.81
2023-03-02T01:49:47.530Z,97083.31
2023-03-02T01:52:15.619Z,97076.19
2023-03-02T01:54:42.842Z,97082.25
2023-03-02T01:57:10.825Z,97072.75
2023-03-02T01:59:39.312Z,97070.09
2023-03-02T02:02:08.987Z,97068.44
2023-03-02T02:04:39.753Z,97068.44
2023-03-02T02:07:09.204Z,97066.75
2023-03-02T02:09:40.600Z,97058.91
2023-03-02T02:12:13.607Z,97059.69
2023-03-02T02:14:41.161Z,97057.22
2023-03-02T02:17:08.387Z,97058.06
2023-03-02T02:20:07.312Z,97059.13
2023-03-02T02:22:46.530Z,97060.91
2023-03-02T02:25:42.389Z,97046.09
2023-03-02T02:28:25.193Z,97049.63
2023-03-02T02:31:13.555Z,97047.09
2023-03-02T02:33:43.537Z,97040.16
2023-03-02T02:36:23.729Z,97047.25
2023-03-02T02:38:51.806Z,97047.16
2023-03-02T02:41:22.552Z,97044.56
2023-03-02T02:43:49.829Z,97048.94
2023-03-02T02:46:16.662Z,97042.72
2023-03-02T02:48:43.145Z,97049.56
2023-03-02T02:51:17.920Z,97047.53
2023-03-02T02:53:59.049Z,97043.16
2023-03-02T02:56:32.359Z,97044.03
2023-03-02T02:59:20.750Z,97045.06
2023-03-02T03:01:49.175Z,97040.78
2023-03-02T03:04:20.944Z,97038.28
2023-03-02T03:06:54.265Z,97037.53
2023-03-02T03:09:21.591Z,97032.09
2023-03-02T03:11:57.038Z,97037.53
2023-03-02T03:14:35.788Z,97027.22
2023-03-02T03:17:02.719Z,97024.56
2023-03-02T03:19:31.984Z,97032.31
2023-03-02T03:22:01.315Z,97025.50
2023-03-02T03:24:29.463Z,97021.34
2023-03-02T03:26:56.239Z,97024.56
2023-03-02T03:29:25.206Z,97021.94
2023-03-02T03:31:53.712Z,97027.34
2023-03-02T03:34:21.399Z,97021.97
2023-03-02T03:36:47.991Z,97029.94
2023-03-02T03:39:16.655Z,97040.44
2023-03-02T03:41:43.560Z,97030.13
2023-03-02T03:44:11.263Z,97036.28
2023-03-02T03:46:38.023Z,97035.50
2023-03-02T03:49:04.939Z,97032.22
2023-03-02T03:51:35.244Z,97033.81
2023-03-02T03:54:08.083Z,97029.44
2023-03-02T03:56:39.287Z,97037.28
2023-03-02T03:59:08.107Z,97042.44
2023-03-02T04:01:46.227Z,97029.63
2023-03-02T04:04:16.197Z,97026.53
2023-03-02T04:06:43.106Z,97023.16
2023-03-02T04:09:09.803Z,97026.66
2023-03-02T04:11:39.269Z,97031.16
2023-03-02T04:14:06.906Z,97026.72
2023-03-02T04:16:33.745Z,97027.66
2023-03-02T04:19:00.632Z,97018.13
2023-03-02T04:21:27.912Z,97010.19
2023-03-02T04:23:54.619Z,97009.25
2023-03-02T04:26:21.183Z,97007.41
2023-03-02T04:28:50.866Z,97011.78
2023-03-02T04:31:17.932Z,97004.75
2023-03-02T04:33:44.893Z,97006.47
2023-03-02T04:36:11.491Z,97005.56
2023-03-02T04:38:37.997Z,97013.50
2023-03-02T04:41:04.816Z,97019.50
2023-03-02T04:43:32.386Z,97014.44
2023-03-02T04:45:59.337Z,97028.28
2023-03-02T04:48:25.954Z,97022.31
2023-03-02T04:50:52.629Z,97019.00
2023-03-02T04:53:19.177Z,97018.31
2023-03-02T04:55:45.883Z,97014.94
2023-03-02T04:58:12.467Z,97029.63
2023-03-02T05:00:39.284Z,97021.84
2023-03-02T05:03:06.360Z,97030.41
2023-03-02T05:05:33.542Z,97014.78
2023-03-02T05:08:00.327Z,97024.19
2023-03-02T05:10:27.846Z,97015.78
2023-03-02T05:12:54.850Z,97016.91
2023-03-02T05:15:23.041Z,97012.47
2023-03-02T05:17:49.576Z,97024.75
2023-03-02T05:20:16.643Z,97013.34
2023-03-02T05:22:43.185Z,97016.09
2023-03-02T05:25:10.009Z,97021.44
2023-03-02T05:27:36.891Z,97012.75
2023-03-02T05:30:07.248Z,97012.09
2023-03-02T05:32:33.863Z,97023.59
2023-03-02T05:35:00.503Z,97025.38
2023-03-02T05:37:27.053Z,97020.16
2023-03-02T05:39:53.561Z,97020.88
2023-03-02T05:42:20.161Z,97018.22
2023-03-02T05:44:46.803Z,97017.41
2023-03-02T05:47:13.367Z,97016.50
2023-03-02T05:49:39.897Z,97019.00
2023-03-02T05:52:06.365Z,97018.91
2023-03-02T05:54:32.893Z,97024.13
2023-03-02T05:56:59.406Z,97023.41
2023-03-02T05:59:25.881Z,97026.81
2023-03-02T06:01:58.622Z,97028.38
2023-03-02T06:04:26.165Z,97025.00
2023-03-02T06:06:52.765Z,97028.06
2023-03-02T06:09:19.318Z,97037.53
2023-03-02T06:11:45.830Z,97021.97
2023-03-02T06:14:12.393Z,97035.75
2023-03-02T06:16:39.012Z,97037.19
2023-03-02T06:19:05.589Z,97026.47
2023-03-02T06:21:32.444Z,97031.22
2023-03-02T06:23:58.996Z,97040.94
2023-03-02T06:26:25.691Z,97032.28
2023-03-02T06:28:53.928Z,97038.31
2023-03-02T06:31:21.354Z,97032.28
2023-03-02T06:33:47.947Z,97030.59
2023-03-02T06:36:16.953Z,97032.47
2023-03-02T06:38:43.591Z,97031.06
2023-03-02T06:41:10.217Z,97027.19
2023-03-02T06:43:36.823Z,97033.75
2023-03-02T06:46:04.186Z,97027.84
2023-03-02T06:48:30.751Z,97035.81
2023-03-02T06:50:57.313Z,97034.47
2023-03-02T06:53:23.868Z,97038.78
2023-03-02T06:55:51.231Z,97037.16
2023-03-02T06:58:17.984Z,97035.00
2023-03-02T07:00:44.698Z,97043.97
2023-03-02T07:03:11.521Z,97046.09
2023-03-02T07:05:38.180Z,97039.47
2023-03-02T07:08:05.039Z,97037.66
2023-03-02T07:10:31.722Z,97044.31
2023-03-02T07:12:58.232Z,97049.50
2023-03-02T07:15:25.506Z,97045.00
2023-03-02T07:17:52.136Z,97047.31
2023-03-02T07:20:19.247Z,97047.47
2023-03-02T07:22:46.116Z,97048.50
2023-03-02T07:25:13.612Z,97045.03
2023-03-02T07:27:40.579Z,97040.00
2023-03-02T07:30:08.490Z,97049.50
2023-03-02T07:32:35.305Z,97058.47
2023-03-02T07:35:01.924Z,97041.31
2023-03-02T07:37:28.453Z,97050.41
2023-03-02T07:39:54.949Z,97039.41
2023-03-02T07:42:21.494Z,97040.28
2023-03-02T07:44:48.155Z,97046.66
2023-03-02T07:47:14.734Z,97049.88
2023-03-02T07:49:41.244Z,97044.25
2023-03-02T07:52:07.828Z,97051.56
2023-03-02T07:54:34.425Z,97044.66
2023-03-02T07:57:00.978Z,97037.81
2023-03-02T07:59:28.865Z,97058.69
2023-03-02T08:01:56.649Z,97050.75
2023-03-02T08:04:24.176Z,97045.22
2023-03-02T08:06:50.766Z,97059.53
2023-03-02T08:09:17.590Z,97049.44
2023-03-02T08:11:44.966Z,97053.31
2023-03-02T08:14:11.694Z,97052.88
2023-03-02T08:16:39.564Z,97052.34
2023-03-02T08:19:06.959Z,97059.19
2023-03-02T08:21:33.855Z,97054.66
2023-03-02T08:24:00.650Z,97053.41
2023-03-02T08:26:27.260Z,97058.81
2023-03-02T08:28:53.811Z,97054.75
2023-03-02T08:31:20.447Z,97062.06
2023-03-02T08:33:47.125Z,97049.63
2023-03-02T08:36:16.897Z,97052.00
2023-03-02T08:38:44.779Z,97051.91
2023-03-02T08:41:14.378Z,97044.69
2023-03-02T08:43:40.956Z,97044.28
2023-03-02T08:46:07.816Z,97044.41
2023-03-02T08:48:34.499Z,97045.50
2023-03-02T08:51:07.195Z,97044.69
2023-03-02T08:53:37.372Z,97042.88
2023-03-02T08:56:07.280Z,97034.56
2023-03-02T09:30:07.388Z,97033.28
2023-03-02T09:32:34.069Z,97032.69
2023-03-02T09:38:46.988Z,97036.63
2023-03-02T10:08:15.249Z,97026.28
2023-03-02T10:10:41.663Z,97025.06
2023-03-02T10:58:20.073Z,96995.09
2023-03-02T11:04:31.007Z,96991.09
2023-03-02T11:07:27.947Z,96999.34
2023-03-02T11:13:42.188Z,96979.50
2023-03-02T11:20:00.477Z,96977.81
2023-03-02T11:22:38.678Z,96966.16
2023-03-02T11:25:17.906Z,96971.78
2023-03-02T11:27:46.097Z,96965.72
2023-03-02T11:30:19.526Z,96956.25
2023-03-02T11:33:04.070Z,96961.25
2023-03-02T11:35:37.148Z,96954.69
2023-03-02T11:38:21.556Z,96963.66
2023-03-02T11:41:13.957Z,96951.38
2023-03-02T11:43:40.454Z,96946.72
2023-03-02T11:46:21.577Z,96942.97
2023-03-02T11:48:53.527Z,96946.31
2023-03-02T11:51:25.830Z,96959.19
2023-03-02T11:54:02.723Z,96935.81
2023-03-02T11:56:32.009Z,96937.25
2023-03-02T11:59:02.971Z,96929.06
2023-03-02T12:01:29.831Z,96930.59
2023-03-02T12:04:07.819Z,96928.44
2023-03-02T12:06:38.718Z,96927.41
2023-03-02T12:09:22.205Z,96925.84
2023-03-02T12:11:56.949Z,96913.00
2023-03-02T12:14:37.223Z,96922.25
2023-03-02T12:17:22.204Z,96920.25
2023-03-02T12:19:50.959Z,96911.16
2023-03-02T12:22:31.274Z,96928.66
2023-03-02T12:25:20.843Z,96918.13
2023-03-02T12:27:50.116Z,96920.41
2023-03-02T12:30:23.759Z,96915.94
2023-03-02T12:33:10.210Z,96910.84
2023-03-02T12:35:37.814Z,96908.81
2023-03-02T12:38:14.371Z,96909.59
2023-03-02T12:41:13.356Z,96914.59
2023-03-02T12:44:07.209Z,96902.78
2023-03-02T12:46:36.122Z,96909.72
2023-03-02T12:49:09.611Z,96903.88
2023-03-02T12:51:54.922Z,96892.28
2023-03-02T12:54:36.468Z,96887.16
2023-03-02T12:57:16.312Z,96885.81
2023-03-02T12:59:53.564Z,96887.13
2023-03-02T13:02:30.303Z,96887.34
2023-03-02T13:04:59.440Z,96880.22
2023-03-02T13:07:43.468Z,96879.88
2023-03-02T13:10:27.352Z,96874.84
2023-03-02T13:12:54.141Z,96875.94
2023-03-02T13:15:28.254Z,96863.84
2023-03-02T13:18:24.059Z,96869.56
2023-03-02T13:20:55.697Z,96867.78
2023-03-02T13:27:22.383Z,96861.28
2023-03-02T13:29:57.777Z,96864.66
2023-03-02T13:32:40.560Z,96858.47
2023-03-02T13:39:45.020Z,96859.88
2023-03-02T13:47:00.019Z,96851.81
2023-03-02T13:49:37.004Z,96854.84
2023-03-02T13:52:16.766Z,96863.19
2023-03-02T13:54:51.272Z,96862.28
2023-03-02T13:57:32.775Z,96855.19
2023-03-02T14:00:00.208Z,96861.41
2023-03-02T14:02:28.873Z,96863.38
2023-03-02T14:05:44.808Z,96849.78
2023-03-02T14:16:01.110Z,96852.97
2023-03-02T14:18:43.144Z,96846.22
2023-03-02T14:21:17.550Z,96847.28
2023-03-02T14:23:44.834Z,96847.66
2023-03-02T14:26:32.237Z,96838.91
2023-03-02T14:29:31.547Z,96840.19
2023-03-02T14:32:07.864Z,96846.78
2023-03-02T14:34:37.416Z,96834.16
2023-03-02T14:37:14.871Z,96837.66
2023-03-02T14:39:47.686Z,96840.25
2023-03-02T14:46:13.388Z,96844.38
2023-03-02T14:48:46.080Z,96838.16
2023-03-02T14:51:43.183Z,96850.97
2023-03-02T14:54:34.303Z,96852.88
2023-03-02T14:57:11.128Z,96845.75
2023-03-02T14:59:37.656Z,96844.84
2023-03-02T15:02:19.069Z,96849.25
2023-03-02T15:04:55.025Z,96844.56
2023-03-02T15:07:23.301Z,96845.09
2023-03-02T15:09:49.877Z,96849.03
2023-03-02T15:12:16.371Z,96848.97
2023-03-02T15:14:42.870Z,96851.91
2023-03-02T15:17:10.591Z,96838.09
2023-03-02T15:19:37.080Z,96844.34
2023-03-02T15:22:04.835Z,96844.75
2023-03-02T15:24:33.256Z,96843.47
2023-03-02T15:27:00.503Z,96842.84
2023-03-02T15:29:27.016Z,96845.06
2023-03-02T15:31:58.174Z,96847.84
2023-03-02T15:34:27.110Z,96849.16
2023-03-02T15:36:53.618Z,96855.53
2023-03-02T15:39:20.180Z,96857.81
2023-03-02T15:41:49.162Z,96856.50
2023-03-02T15:44:24.172Z,96861.56
2023-03-02T15:47:02.608Z,96856.06
2023-03-02T15:49:33.379Z,96865.19
2023-03-02T15:52:00.150Z,96853.19
2023-03-02T15:54:35.838Z,96855.56
2023-03-02T15:57:05.046Z,96865.19
2023-03-02T15:59:31.985Z,96859.50
2023-03-02T16:01:59.677Z,96859.28
2023-03-02T16:04:27.150Z,96865.25
2023-03-02T16:06:55.094Z,96861.41
2023-03-02T16:09:28.295Z,96870.53
2023-03-02T16:12:33.101Z,96872.88
2023-03-02T16:15:10.814Z,96874.44
2023-03-02T16:17:58.128Z,96869.72
2023-03-02T16:20:40.627Z,96879.00
2023-03-02T16:23:22.659Z,96875.28
2023-03-02T16:25:52.348Z,96874.88
2023-03-02T16:28:22.165Z,96883.47
2023-03-02T16:30:49.327Z,96877.06
2023-03-02T16:33:33.529Z,96888.16
2023-03-02T16:36:00.143Z,96888.72
2023-03-02T16:38:27.670Z,96889.19
2023-03-02T16:40:57.130Z,96896.88
2023-03-02T16:43:26.466Z,96894.91
2023-03-02T16:46:15.898Z,96896.38
2023-03-02T16:48:44.041Z,96901.25
2023-03-02T16:51:11.349Z,96901.88
2023-03-02T16:59:37.722Z,96910.22
2023-03-02T17:02:04.638Z,96915.28
2023-03-02T17:04:34.859Z,96924.63
2023-03-02T17:07:01.776Z,96923.38
2023-03-02T17:09:31.254Z,96926.63
2023-03-02T17:11:59.288Z,96918.38
2023-03-02T17:14:26.380Z,96927.75
2023-03-02T17:16:53.924Z,96927.28
2023-03-02T17:19:20.673Z,96934.72
2023-03-02T17:21:47.286Z,96940.25
2023-03-02T17:24:14.067Z,96939.81
2023-03-02T17:26:40.998Z,96943.75
2023-03-02T17:29:08.126Z,96945.88
2023-03-02T17:31:34.723Z,96949.72
2023-03-02T17:34:01.315Z,96958.94
2023-03-02T17:36:27.979Z,96953.34
2023-03-02T17:38:54.550Z,96958.97
2023-03-02T17:41:21.167Z,96957.75
2023-03-02T17:43:47.935Z,96962.75
2023-03-02T17:46:20.763Z,96969.31
2023-03-02T17:48:49.851Z,96966.63
2023-03-02T17:51:17.368Z,96968.09
2023-03-02T17:53:46.184Z,96971.19
2023-03-02T17:56:15.706Z,96974.00
2023-03-02T17:58:45.319Z,96964.91
2023-03-02T18:02:13.286Z,96974.06
2023-03-02T18:04:14.793Z,96976.97
2023-03-02T18:06:44.021Z,96975.56
2023-03-02T18:09:12.017Z,96976.13
2023-03-02T18:11:38.623Z,96983.56
2023-03-02T18:14:05.326Z,96978.22
2023-03-02T18:16:36.490Z,96978.91
2023-03-02T18:19:03.114Z,96989.00
2023-03-02T18:21:29.889Z,96979.97
2023-03-02T18:23:57.831Z,96991.25
2023-03-02T18:29:05.874Z,96997.31
2023-03-02T18:31:42.607Z,97000.50
2023-03-02T18:34:11.547Z,97005.56
2023-03-02T18:36:38.500Z,97002.56
2023-03-02T18:39:08.112Z,97003.25
2023-03-02T18:41:34.615Z,97003.66
2023-03-02T18:44:01.457Z,97006.06
2023-03-02T18:46:30.589Z,97008.63
2023-03-02T18:48:57.941Z,97002.44
2023-03-02T18:51:25.590Z,97012.28
2023-03-02T18:53:55.262Z,97011.84
2023-03-02T18:56:22.851Z,97011.53
2023-03-02T18:58:51.495Z,97020.59
2023-03-02T19:01:18.408Z,97020.06
2023-03-02T19:03:47.959Z,97019.44
2023-03-02T19:06:15.344Z,97023.34
2023-03-02T19:08:42.223Z,97020.97
2023-03-02T19:11:09.003Z,97022.09
2023-03-02T19:13:35.632Z,97025.09
2023-03-02T19:16:08.007Z,97031.53
2023-03-02T19:18:35.355Z,97032.03
2023-03-02T19:21:04.299Z,97035.47
2023-03-02T19:23:35.003Z,97044.38
2023-03-02T19:26:03.325Z,97044.88
2023-03-02T19:28:29.992Z,97054.69
2023-03-02T19:30:56.843Z,97045.16
2023-03-02T19:33:24.784Z,97043.47
2023-03-02T19:36:06.265Z,97039.19
2023-03-02T19:38:53.980Z,97038.31
2023-03-02T19:41:23.860Z,97040.25
2023-03-02T19:43:53.726Z,97047.84
2023-03-02T19:46:20.380Z,97045.94
2023-03-02T19:48:47.810Z,97048.47
2023-03-02T19:51:15.760Z,97045.09
2023-03-02T19:53:43.827Z,97047.00
2023-03-02T19:56:14.337Z,97046.22
2023-03-02T19:58:47.606Z,97049.75
2023-03-02T20:01:26.662Z,97053.97
2023-03-02T20:04:08.467Z,97050.81
2023-03-02T20:12:27.082Z,97055.91
2023-03-02T20:14:54.372Z,97053.91
2023-03-02T20:17:21.137Z,97058.97
2023-03-02T20:19:49.379Z,97064.84
2023-03-02T20:22:16.610Z,97065.34
2023-03-02T20:24:43.534Z,97071.94
2023-03-02T20:27:12.693Z,97073.28
2023-03-02T20:29:43.206Z,97067.75
2023-03-02T20:32:12.563Z,97069.69
2023-03-02T20:34:41.332Z,97079.53
2023-03-02T20:37:08.460Z,97079.59
2023-03-02T20:39:38.257Z,97080.50
2023-03-02T20:42:06.598Z,97080.69
2023-03-02T20:44:34.382Z,97088.88
2023-03-02T20:47:08.323Z,97084.91
2023-03-02T20:49:37.293Z,97085.34
2023-03-02T20:52:05.596Z,97101.53
2023-03-02T20:54:36.324Z,97102.03
2023-03-02T20:57:05.358Z,97097.91
2023-03-02T20:59:32.883Z,97107.53
2023-03-02T21:02:00.143Z,97109.75
2023-03-02T21:04:26.793Z,97113.94
2023-03-02T21:06:53.523Z,97107.03
2023-03-02T21:09:20.772Z,97114.91
2023-03-02T21:11:48.101Z,97107.16
2023-03-02T21:14:15.320Z,97113.41
2023-03-02T21:16:43.666Z,97111.63
2023-03-02T21:19:14.497Z,97119.50
2023-03-02T21:21:42.572Z,97120.41
2023-03-02T21:24:18.387Z,97118.38
2023-03-02T21:26:46.503Z,97122.09
2023-03-02T21:29:14.041Z,97124.75
2023-03-02T21:31:42.302Z,97121.47
2023-03-02T21:34:08.860Z,97126.56
2023-03-02T21:36:35.551Z,97117.78
2023-03-02T21:39:03.155Z,97123.19
2023-03-02T21:41:29.936Z,97121.66
2023-03-02T21:43:56.590Z,97129.69
2023-03-02T21:46:23.681Z,97124.59
2023-03-02T21:48:51.714Z,97124.84
2023-03-02T21:51:18.685Z,97127.53
2023-03-02T21:53:45.247Z,97126.81
2023-03-02T21:56:20.479Z,97132.09
2023-03-02T21:58:52.720Z,97131.22
2023-03-02T22:01:19.926Z,97128.75
2023-03-02T22:03:46.602Z,97133.13
2023-03-02T22:06:25.590Z,97133.94
2023-03-02T22:08:52.825Z,97140.03
2023-03-02T22:11:38.560Z,97125.50
2023-03-02T22:14:14.332Z,97128.94
2023-03-02T22:16:45.102Z,97125.41
2023-03-02T22:19:29.406Z,97133.25
2023-03-02T22:22:00.509Z,97126.28
2023-03-02T22:24:29.416Z,97131.56
2023-03-02T22:27:21.873Z,97131.72
2023-03-02T22:29:49.680Z,97136.97
2023-03-02T22:32:24.441Z,97136.19
2023-03-02T22:34:54.111Z,97141.50
2023-03-02T22:37:23.432Z,97141.72
2023-03-02T22:39:53.379Z,97146.16
2023-03-02T22:42:26.942Z,97148.88
2023-03-02T22:45:07.160Z,97148.94
2023-03-02T22:47:33.685Z,97143.00
2023-03-02T22:50:19.037Z,97157.75
2023-03-02T22:52:45.607Z,97157.88
2023-03-02T22:55:34.303Z,97162.25
2023-03-02T22:58:25.471Z,97160.75
2023-03-02T23:00:52.469Z,97163.38
2023-03-02T23:03:21.828Z,97167.75
2023-03-02T23:05:51.764Z,97161.00
2023-03-02T23:08:23.006Z,97166.31
2023-03-02T23:10:51.605Z,97170.63
2023-03-02T23:13:21.354Z,97161.94
2023-03-02T23:15:48.632Z,97171.63
2023-03-02T23:18:23.191Z,97172.63
2023-03-02T23:20:53.414Z,97171.00
2023-03-02T23:23:22.064Z,97170.09
2023-03-02T23:25:48.946Z,97173.59
2023-03-02T23:28:15.510Z,97171.94
2023-03-02T23:30:42.312Z,97172.88
2023-03-02T23:33:09.099Z,97169.56
2023-03-02T23:35:35.704Z,97174.78
2023-03-02T23:38:02.280Z,97178.06
2023-03-02T23:40:29.120Z,97173.88
2023-03-02T23:42:56.084Z,97175.69
2023-03-02T23:45:22.970Z,97168.00
2023-03-02T23:47:49.585Z,97175.06
2023-03-02T23:50:16.096Z,97165.63
2023-03-02T23:52:42.627Z,97172.59
2023-03-02T23:55:09.771Z,97166.63
2023-03-02T23:57:36.310Z,97175.25
